createdAt,value
2022-09-01T00:04:27.010Z,13.53
2022-09-01T00:09:24.119Z,13.53
2022-09-01T00:14:29.857Z,13.56
2022-09-01T00:19:27.352Z,13.58
2022-09-01T00:24:26.186Z,13.44
2022-09-01T00:29:23.553Z,13.25
2022-09-01T00:34:21.014Z,13.23
2022-09-01T00:39:17.422Z,13.13
2022-09-01T00:44:18.481Z,13.07
2022-09-01T00:49:19.322Z,12.99
2022-09-01T00:54:21.363Z,12.82
2022-09-01T00:59:21.110Z,12.70
2022-09-01T01:04:17.611Z,12.63
2022-09-01T01:09:13.990Z,12.57
2022-09-01T01:14:12.162Z,12.49
2022-09-01T01:19:30.526Z,12.43
2022-09-01T01:24:34.638Z,12.37
2022-09-01T01:29:34.025Z,12.40
2022-09-01T01:34:30.874Z,12.45
2022-09-01T01:39:27.513Z,12.54
2022-09-01T01:44:27.870Z,12.59
2022-09-01T01:49:27.534Z,12.60
2022-09-01T01:54:25.878Z,12.59
2022-09-01T01:59:24.756Z,12.58
2022-09-01T02:04:21.612Z,12.56
2022-09-01T02:09:20.179Z,12.56
2022-09-01T02:14:21.702Z,12.68
2022-09-01T02:19:21.040Z,12.73
2022-09-01T02:24:17.409Z,12.70
2022-09-01T02:29:26.499Z,12.57
2022-09-01T02:34:24.414Z,12.41
2022-09-01T02:39:29.546Z,12.35
2022-09-01T02:44:27.796Z,12.21
2022-09-01T02:49:25.786Z,12.07
2022-09-01T02:54:24.560Z,12.00
2022-09-01T02:59:24.150Z,11.98
2022-09-01T03:04:22.387Z,12.10
2022-09-01T03:09:19.114Z,12.18
2022-09-01T03:14:16.982Z,12.12
2022-09-01T03:19:15.089Z,12.04
2022-09-01T03:24:15.087Z,11.96
2022-09-01T03:29:12.025Z,11.82
2022-09-01T03:34:10.898Z,11.74
2022-09-01T03:39:13.388Z,11.63
2022-09-01T03:44:16.203Z,11.61
2022-09-01T03:49:15.389Z,11.71
2022-09-01T03:54:12.606Z,11.75
2022-09-01T03:59:16.968Z,11.82
2022-09-01T04:04:14.889Z,11.82
2022-09-01T04:09:11.848Z,11.77
2022-09-01T04:14:10.738Z,11.61
2022-09-01T04:19:19.829Z,11.59
2022-09-01T04:24:18.899Z,11.56
2022-09-01T04:29:24.177Z,11.54
2022-09-01T04:34:22.504Z,11.61
2022-09-01T04:39:18.865Z,11.57
2022-09-01T04:44:19.179Z,11.65
2022-09-01T04:49:22.208Z,11.61
2022-09-01T04:54:19.656Z,11.61
2022-09-01T04:59:17.270Z,11.61
2022-09-01T05:04:22.740Z,11.69
2022-09-01T05:09:20.346Z,11.75
2022-09-01T05:14:19.865Z,11.77
2022-09-01T05:19:17.511Z,11.91
2022-09-01T05:24:17.597Z,12.00
2022-09-01T05:29:17.638Z,12.11
2022-09-01T05:34:20.158Z,12.74
2022-09-01T05:39:16.651Z,13.25
2022-09-01T05:44:14.158Z,13.55
2022-09-01T05:49:13.893Z,13.82
2022-09-01T05:54:12.040Z,13.83
2022-09-01T05:59:26.560Z,13.89
2022-09-01T06:04:25.601Z,13.81
2022-09-01T06:09:23.451Z,14.25
2022-09-01T06:14:20.472Z,14.06
2022-09-01T06:19:17.010Z,14.22
2022-09-01T06:24:13.762Z,14.16
2022-09-01T06:29:15.227Z,14.66
2022-09-01T06:34:17.694Z,15.14
2022-09-01T06:39:19.809Z,15.38
2022-09-01T06:44:22.224Z,15.51
2022-09-01T06:49:32.506Z,15.48
2022-09-01T06:54:34.237Z,15.63
2022-09-01T06:59:34.756Z,16.06
2022-09-01T07:04:31.484Z,16.25
2022-09-01T07:09:38.833Z,16.55
2022-09-01T07:25:21.449Z,17.24
2022-09-01T07:30:19.604Z,17.43
2022-09-01T07:35:22.416Z,17.66
2022-09-01T07:45:47.693Z,18.33
2022-09-01T07:56:09.919Z,18.34
2022-09-01T08:01:08.858Z,18.69
2022-09-01T08:06:08.331Z,18.85
2022-09-01T08:11:05.255Z,19.26
2022-09-01T08:16:08.341Z,19.37
2022-09-01T08:21:11.540Z,19.49
2022-09-01T08:26:10.140Z,19.75
2022-09-01T08:31:11.996Z,19.68
2022-09-01T08:36:11.180Z,20.00
2022-09-01T08:41:17.251Z,20.22
2022-09-01T08:46:22.751Z,20.13
2022-09-01T08:51:30.503Z,20.28
2022-09-01T08:56:27.834Z,20.85
2022-09-01T09:01:41.769Z,20.89
2022-09-01T09:07:36.179Z,21.07
2022-09-01T09:13:10.564Z,20.65
2022-09-01T09:18:38.927Z,20.88
2022-09-01T09:23:40.866Z,21.35
2022-09-01T09:28:38.588Z,21.54
2022-09-01T09:33:51.803Z,21.47
2022-09-01T09:39:04.977Z,21.76
2022-09-01T09:44:17.620Z,21.94
2022-09-01T09:49:35.859Z,21.88
2022-09-01T09:54:35.767Z,22.16
2022-09-01T09:59:57.867Z,22.26
2022-09-01T10:04:56.135Z,22.01
2022-09-01T10:09:55.672Z,22.23
2022-09-01T10:14:56.327Z,21.58
2022-09-01T10:19:57.137Z,21.51
2022-09-01T10:24:53.570Z,22.51
2022-09-01T10:30:13.870Z,22.51
2022-09-01T10:35:23.929Z,22.60
2022-09-01T10:40:30.281Z,22.89
2022-09-01T10:45:32.932Z,22.51
2022-09-01T10:50:35.489Z,21.79
2022-09-01T10:55:37.334Z,21.68
2022-09-01T11:00:37.007Z,21.68
2022-09-01T11:06:11.307Z,21.84
2022-09-01T11:11:36.381Z,21.68
2022-09-01T11:16:47.292Z,21.91
2022-09-01T11:21:46.024Z,22.66
2022-09-01T11:26:48.614Z,22.11
2022-09-01T11:31:45.296Z,21.84
2022-09-01T11:36:48.269Z,22.72
2022-09-01T11:41:55.851Z,22.41
2022-09-01T11:47:02.082Z,22.06
2022-09-01T11:52:00.535Z,21.96
2022-09-01T11:56:57.001Z,22.06
2022-09-01T12:01:58.123Z,22.90
2022-09-01T12:07:08.021Z,23.65
2022-09-01T12:12:25.291Z,24.06
2022-09-01T12:17:21.685Z,23.74
2022-09-01T12:22:21.360Z,23.65
2022-09-01T12:27:18.164Z,23.92
2022-09-01T12:32:15.830Z,23.15
2022-09-01T12:37:12.297Z,22.70
2022-09-01T12:42:10.720Z,22.35
2022-09-01T12:47:16.258Z,22.21
2022-09-01T12:52:27.430Z,22.29
2022-09-01T12:57:35.942Z,22.33
2022-09-01T13:02:42.014Z,22.90
2022-09-01T13:07:38.510Z,23.69
2022-09-01T13:12:41.236Z,24.16
2022-09-01T13:17:38.361Z,23.53
2022-09-01T13:22:35.290Z,22.79
2022-09-01T13:27:31.827Z,22.79
2022-09-01T13:32:28.225Z,22.88
2022-09-01T13:37:25.720Z,22.98
2022-09-01T13:42:22.840Z,23.27
2022-09-01T13:47:29.202Z,22.74
2022-09-01T13:52:26.370Z,22.72
2022-09-01T13:57:22.725Z,22.49
2022-09-01T14:02:19.439Z,23.16
2022-09-01T14:07:18.773Z,23.48
2022-09-01T14:12:15.244Z,23.86
2022-09-01T14:17:12.043Z,23.74
2022-09-01T14:22:08.492Z,24.12
2022-09-01T14:27:05.055Z,23.86
2022-09-01T14:32:02.160Z,23.83
2022-09-01T14:36:59.501Z,23.65
2022-09-01T14:41:55.886Z,23.36
2022-09-01T14:46:54.605Z,23.32
2022-09-01T15:02:25.234Z,23.14
2022-09-01T15:07:21.668Z,23.55
2022-09-01T15:12:19.302Z,23.70
2022-09-01T15:17:15.676Z,23.85
2022-09-01T15:22:14.329Z,23.98
2022-09-01T15:27:11.519Z,23.17
2022-09-01T15:32:07.841Z,22.91
2022-09-01T15:37:11.660Z,23.68
2022-09-01T15:42:08.388Z,23.96
2022-09-01T15:47:05.007Z,24.20
2022-09-01T15:52:01.604Z,24.12
2022-09-01T15:56:58.114Z,23.73
2022-09-01T16:01:54.792Z,23.88
2022-09-01T16:06:52.565Z,23.98
2022-09-01T16:11:49.304Z,23.96
2022-09-01T16:17:08.821Z,23.68
2022-09-01T16:22:29.018Z,24.12
2022-09-01T16:27:33.211Z,23.97
2022-09-01T16:32:31.463Z,24.43
2022-09-01T16:37:37.056Z,25.07
2022-09-01T16:42:49.147Z,25.83
2022-09-01T16:48:08.015Z,28.70
2022-09-01T16:53:40.029Z,30.04
2022-09-01T16:59:11.891Z,30.55
2022-09-01T17:04:28.630Z,31.27
2022-09-01T17:09:32.562Z,31.52
2022-09-01T17:14:39.638Z,30.93
2022-09-01T17:19:39.173Z,30.94
2022-09-01T17:25:07.701Z,30.13
2022-09-01T17:30:07.113Z,29.89
2022-09-01T17:35:23.100Z,28.68
2022-09-01T17:40:23.879Z,28.49
2022-09-01T17:45:33.792Z,24.30
2022-09-01T17:51:02.037Z,22.01
2022-09-01T17:56:18.889Z,21.13
2022-09-01T18:01:21.333Z,20.65
2022-09-01T18:06:34.612Z,20.17
2022-09-01T18:11:43.214Z,19.85
2022-09-01T18:17:01.992Z,19.53
2022-09-01T18:22:03.481Z,19.29
2022-09-01T18:27:01.593Z,19.21
2022-09-01T18:32:11.152Z,19.03
2022-09-01T18:37:22.435Z,18.93
2022-09-01T18:42:37.889Z,18.75
2022-09-01T18:48:01.946Z,18.62
2022-09-01T18:53:14.920Z,18.50
2022-09-01T18:58:31.104Z,18.37
2022-09-01T19:03:38.609Z,18.24
2022-09-01T19:08:46.957Z,18.22
2022-09-01T19:13:54.799Z,18.07
2022-09-01T19:19:22.287Z,18.04
2022-09-01T19:24:26.712Z,17.87
2022-09-01T19:29:37.632Z,17.74
2022-09-01T19:34:42.916Z,17.60
2022-09-01T19:39:43.762Z,17.46
2022-09-01T19:44:47.050Z,17.46
2022-09-01T19:50:12.332Z,17.27
2022-09-01T19:55:26.058Z,17.20
2022-09-01T20:00:42.020Z,17.03
2022-09-01T20:05:50.403Z,16.99
2022-09-01T20:11:05.288Z,16.92
2022-09-01T20:16:24.649Z,16.79
2022-09-01T20:21:21.913Z,16.62
2022-09-01T20:26:26.911Z,16.73
2022-09-01T20:31:36.901Z,16.64
2022-09-01T20:36:50.594Z,16.62
2022-09-01T20:42:19.853Z,16.74
2022-09-01T20:47:16.755Z,16.79
2022-09-01T20:52:26.845Z,16.85
2022-09-01T20:57:50.262Z,17.01
2022-09-01T21:02:52.952Z,17.07
2022-09-01T21:08:24.883Z,16.98
2022-09-01T21:13:49.522Z,16.92
2022-09-01T21:19:06.253Z,16.79
2022-09-01T21:24:04.183Z,16.86
2022-09-01T21:29:06.226Z,16.75
2022-09-01T21:34:02.662Z,16.64
2022-09-01T21:38:59.027Z,16.66
2022-09-01T21:43:55.408Z,16.52
2022-09-01T21:48:51.863Z,16.38
2022-09-01T21:53:48.247Z,16.44
2022-09-01T21:58:44.686Z,16.34
2022-09-01T22:03:46.441Z,16.10
2022-09-01T22:08:42.801Z,15.76
2022-09-01T22:13:39.220Z,15.59
2022-09-01T22:18:35.626Z,15.58
2022-09-01T22:23:32.164Z,15.45
2022-09-01T22:28:28.596Z,15.29
2022-09-01T22:33:25.635Z,15.25
2022-09-01T22:38:23.205Z,15.28
2022-09-01T22:43:19.821Z,15.33
2022-09-01T22:48:18.374Z,15.35
2022-09-01T22:53:16.635Z,15.19
2022-09-01T22:58:15.707Z,15.08
2022-09-01T23:03:12.191Z,15.06
2022-09-01T23:08:09.392Z,14.97
2022-09-01T23:13:06.290Z,14.89
2022-09-01T23:18:02.734Z,14.79
2022-09-01T23:22:59.133Z,14.73
2022-09-01T23:27:55.568Z,14.54
2022-09-01T23:32:51.950Z,14.42
2022-09-01T23:37:48.335Z,14.33
2022-09-01T23:42:45.395Z,14.23
2022-09-01T23:47:41.785Z,14.27
2022-09-01T23:52:38.170Z,14.14
2022-09-01T23:57:35.093Z,14.01
